Terminal Aerodrome Forecast
Issued by NWS Wilmington, OH

Current Version | Previous Version | Graphics & Text | Print | Product List | Glossary On
Versions: 1 2 3 4 5 6 7 8 9 10 11 12 13 14 15 16 17 18 19 20 21 22 23 24 25 26
337
FTUS41 KILN 200546 AAB
TAFCVG
TAF AMD
KCVG 200546Z 2006/2112 00000KT 3SM BR SCT008
      TEMPO 2006/2008 1SM BR OVC008
     FM200800 00000KT 1SM BR OVC008
     FM201500 14006KT P6SM SCT015
     FM201800 14008KT P6SM SCT200
     FM210100 15005KT P6SM BKN200=

USA.gov is the U.S. government's official web portal to all federal, state and local government web resources and services.